createdAt,value
2018-12-05T00:01:48.127Z,8.30
2018-12-05T00:04:15.566Z,8.73
2018-12-05T00:06:42.995Z,8.83
2018-12-05T00:09:10.430Z,8.50
2018-12-05T00:11:38.484Z,8.60
2018-12-05T00:14:06.239Z,6.73
2018-12-05T00:16:33.678Z,10.13
2018-12-05T00:19:01.108Z,7.97
2018-12-05T00:21:28.535Z,8.10
2018-12-05T00:23:55.970Z,5.87
2018-12-05T00:26:23.395Z,8.73
2018-12-05T00:28:50.826Z,8.00
2018-12-05T00:31:18.259Z,11.23
2018-12-05T00:33:45.690Z,9.00
2018-12-05T00:36:13.142Z,5.87
2018-12-05T00:38:40.642Z,7.27
2018-12-05T00:41:08.130Z,8.50
2018-12-05T00:43:35.560Z,7.37
2018-12-05T00:46:03.035Z,7.33
2018-12-05T00:48:30.458Z,8.50
2018-12-05T00:50:57.900Z,9.03
2018-12-05T00:53:25.319Z,5.00
2018-12-05T00:55:52.750Z,9.30
2018-12-05T00:58:20.178Z,8.20
2018-12-05T01:00:47.610Z,6.30
2018-12-05T01:03:15.102Z,8.97
2018-12-05T01:05:42.586Z,9.57
2018-12-05T01:08:10.023Z,5.67
2018-12-05T01:10:37.456Z,9.97
2018-12-05T01:13:05.039Z,6.57
2018-12-05T01:15:32.463Z,8.67
2018-12-05T01:17:59.895Z,10.00
2018-12-05T01:20:27.326Z,6.83
2018-12-05T01:22:54.749Z,8.93
2018-12-05T01:25:22.175Z,8.83
2018-12-05T01:27:49.608Z,8.13
2018-12-05T01:30:17.034Z,7.57
2018-12-05T01:32:44.473Z,6.67
2018-12-05T01:35:11.902Z,9.50
2018-12-05T01:37:39.332Z,9.07
2018-12-05T01:40:06.868Z,11.20
2018-12-05T01:42:34.300Z,8.00
2018-12-05T01:45:01.732Z,9.07
2018-12-05T01:47:29.255Z,9.30
2018-12-05T01:49:56.687Z,13.73
2018-12-05T01:52:24.120Z,9.23
2018-12-05T01:54:51.549Z,8.70
2018-12-05T01:57:18.983Z,8.67
2018-12-05T01:59:46.422Z,11.30
2018-12-05T02:02:13.855Z,10.33
2018-12-05T02:04:41.299Z,10.87
2018-12-05T02:07:08.743Z,10.83
2018-12-05T02:09:36.185Z,11.47
2018-12-05T02:12:03.675Z,11.20
2018-12-05T02:14:31.115Z,16.33
2018-12-05T02:16:58.547Z,11.70
2018-12-05T02:19:26.247Z,10.00
2018-12-05T02:21:53.683Z,12.90
2018-12-05T02:24:21.115Z,12.07
2018-12-05T02:26:48.554Z,10.60
2018-12-05T02:29:16.011Z,8.40
2018-12-05T02:31:43.439Z,8.63
2018-12-05T02:34:10.920Z,10.73
2018-12-05T02:36:38.363Z,11.47
2018-12-05T02:39:07.422Z,10.47
2018-12-05T02:41:34.847Z,12.87
2018-12-05T02:44:02.283Z,9.67
2018-12-05T02:46:29.720Z,15.63
2018-12-05T02:48:57.165Z,11.60
2018-12-05T02:51:24.699Z,11.30
2018-12-05T02:53:52.135Z,11.07
2018-12-05T02:56:19.640Z,12.83
2018-12-05T02:58:47.074Z,10.73
2018-12-05T03:01:14.511Z,11.57
2018-12-05T03:03:41.939Z,11.57
2018-12-05T03:06:09.386Z,12.40
2018-12-05T03:08:36.810Z,12.43
2018-12-05T03:11:04.242Z,14.73
2018-12-05T03:13:31.684Z,14.00
2018-12-05T03:15:59.110Z,13.47
2018-12-05T03:18:26.620Z,14.80
2018-12-05T03:20:54.051Z,9.77
2018-12-05T03:23:21.511Z,12.87
2018-12-05T03:25:49.059Z,12.47
2018-12-05T03:28:16.496Z,11.53
2018-12-05T03:30:43.923Z,15.20
2018-12-05T03:33:11.367Z,17.63
2018-12-05T03:35:38.955Z,12.53
2018-12-05T03:38:06.728Z,16.63
2018-12-05T03:40:34.231Z,16.50
2018-12-05T03:43:01.670Z,12.60
2018-12-05T03:45:31.692Z,15.90
2018-12-05T03:47:59.424Z,15.37
2018-12-05T03:50:26.938Z,14.63
2018-12-05T03:52:54.447Z,13.60
2018-12-05T03:55:21.890Z,12.03
2018-12-05T03:57:49.419Z,17.30
2018-12-05T04:00:16.856Z,14.80
2018-12-05T04:02:44.304Z,14.20
2018-12-05T04:05:11.751Z,13.73
2018-12-05T04:07:39.296Z,16.00
2018-12-05T04:10:06.839Z,13.70
2018-12-05T04:12:40.549Z,15.47
2018-12-05T04:15:04.224Z,12.07
2018-12-05T04:17:31.665Z,15.93
2018-12-05T04:19:59.108Z,14.77
2018-12-05T04:22:26.543Z,14.23
2018-12-05T04:24:53.984Z,14.37
2018-12-05T04:27:23.375Z,17.80
2018-12-05T04:29:50.806Z,15.70
2018-12-05T04:32:18.248Z,14.90
2018-12-05T04:34:45.778Z,14.13
2018-12-05T04:37:13.329Z,20.87
2018-12-05T04:39:40.774Z,15.00
2018-12-05T04:42:08.215Z,13.87
2018-12-05T04:44:35.658Z,15.53
2018-12-05T04:47:03.097Z,17.10
2018-12-05T04:49:30.632Z,15.90
2018-12-05T04:51:58.067Z,13.33
2018-12-05T04:54:25.510Z,12.53
2018-12-05T04:56:52.953Z,16.90
2018-12-05T04:59:20.395Z,15.93
2018-12-05T05:01:47.839Z,16.07
2018-12-05T05:04:15.359Z,15.60
2018-12-05T05:06:42.811Z,12.93
2018-12-05T05:09:10.324Z,13.73
2018-12-05T05:11:37.764Z,16.37
2018-12-05T05:14:05.299Z,14.23
2018-12-05T05:16:32.735Z,12.80
2018-12-05T05:19:00.175Z,13.63
2018-12-05T05:21:27.607Z,18.17
2018-12-05T05:23:55.108Z,13.40
2018-12-05T05:26:22.551Z,15.47
2018-12-05T05:28:49.982Z,14.00
2018-12-05T05:31:17.414Z,13.87
2018-12-05T05:33:44.907Z,15.17
2018-12-05T05:36:12.360Z,15.97
2018-12-05T05:38:39.895Z,14.33
2018-12-05T05:41:07.326Z,19.37
2018-12-05T05:43:34.763Z,16.00
2018-12-05T05:46:02.213Z,16.17
2018-12-05T05:48:29.645Z,16.43
2018-12-05T05:50:57.143Z,14.80
2018-12-05T05:53:24.570Z,17.00
2018-12-05T05:55:52.011Z,19.87
2018-12-05T05:58:19.448Z,15.33
2018-12-05T06:00:46.900Z,17.67
2018-12-05T06:03:14.329Z,18.73
2018-12-05T06:05:41.871Z,19.00
2018-12-05T06:08:09.304Z,20.03
2018-12-05T06:10:36.740Z,18.17
2018-12-05T06:13:04.166Z,21.93
2018-12-05T06:15:31.615Z,20.07
2018-12-05T06:17:59.066Z,21.53
2018-12-05T06:20:26.511Z,19.47
2018-12-05T06:22:53.962Z,20.80
2018-12-05T06:25:21.440Z,21.30
2018-12-05T06:27:49.039Z,21.77
2018-12-05T06:30:16.473Z,20.43
2018-12-05T06:32:43.914Z,21.50
2018-12-05T06:35:11.395Z,19.43
2018-12-05T06:37:38.848Z,20.40
2018-12-05T06:40:06.887Z,22.93
2018-12-05T06:42:34.327Z,17.83
2018-12-05T06:45:01.762Z,20.73
2018-12-05T06:47:29.240Z,21.10
2018-12-05T06:49:56.734Z,19.80
2018-12-05T06:52:24.172Z,20.20
2018-12-05T06:54:51.712Z,19.83
2018-12-05T06:57:19.158Z,17.73
2018-12-05T06:59:46.591Z,20.73
2018-12-05T07:02:14.035Z,20.73
2018-12-05T07:04:41.475Z,18.90
2018-12-05T07:07:08.970Z,20.27
2018-12-05T07:09:36.415Z,19.60
2018-12-05T07:12:03.850Z,23.03
2018-12-05T07:14:31.282Z,25.33
2018-12-05T07:16:58.731Z,22.77
2018-12-05T07:19:26.181Z,21.57
2018-12-05T07:21:53.615Z,21.80
2018-12-05T07:24:21.050Z,22.93
2018-12-05T07:26:48.491Z,24.10
2018-12-05T07:29:15.931Z,22.13
2018-12-05T07:31:43.364Z,22.60
2018-12-05T07:34:10.801Z,23.83
2018-12-05T07:36:38.239Z,25.00
2018-12-05T07:39:06.299Z,20.50
2018-12-05T07:41:33.731Z,23.00
2018-12-05T07:44:01.178Z,20.13
2018-12-05T07:46:28.621Z,25.53
2018-12-05T07:48:56.150Z,24.37
2018-12-05T07:51:23.584Z,20.07
2018-12-05T07:53:51.028Z,22.23
2018-12-05T07:56:18.514Z,20.87
2018-12-05T07:58:45.980Z,20.67
2018-12-05T08:01:13.415Z,20.67
2018-12-05T08:03:40.863Z,22.67
2018-12-05T08:06:08.314Z,22.37
2018-12-05T08:08:35.751Z,25.00
2018-12-05T08:11:03.244Z,20.03
2018-12-05T08:13:30.670Z,20.17
2018-12-05T08:15:58.106Z,19.50
2018-12-05T08:18:25.543Z,20.53
2018-12-05T08:20:52.991Z,20.23
2018-12-05T08:23:20.424Z,20.67
2018-12-05T08:25:47.873Z,21.77
2018-12-05T08:28:15.455Z,19.50
2018-12-05T08:30:42.891Z,22.80
2018-12-05T08:33:10.335Z,19.90
2018-12-05T08:35:37.842Z,18.67
2018-12-05T08:38:05.285Z,21.00
2018-12-05T08:40:32.731Z,18.70
2018-12-05T08:43:00.166Z,18.57
2018-12-05T08:45:27.626Z,16.83
2018-12-05T08:47:55.111Z,19.97
2018-12-05T08:50:22.538Z,20.23
2018-12-05T08:52:49.983Z,17.13
2018-12-05T08:55:17.420Z,16.37
2018-12-05T08:57:45.158Z,18.20
2018-12-05T09:00:12.715Z,16.57
2018-12-05T09:02:40.154Z,16.87
2018-12-05T09:05:07.599Z,16.90
2018-12-05T09:07:35.031Z,13.63
2018-12-05T09:10:02.531Z,14.20
2018-12-05T09:12:29.975Z,15.43
2018-12-05T09:14:57.427Z,17.30
2018-12-05T09:17:24.866Z,16.90
2018-12-05T09:19:53.305Z,16.23
2018-12-05T09:22:20.755Z,15.90
2018-12-05T09:24:48.190Z,14.37
2018-12-05T09:27:15.622Z,11.97
2018-12-05T09:29:43.054Z,14.10
2018-12-05T09:32:10.491Z,16.73
2018-12-05T09:34:37.931Z,12.77
2018-12-05T09:37:05.370Z,13.90
2018-12-05T09:39:32.812Z,14.73
2018-12-05T09:42:00.247Z,14.13
2018-12-05T09:44:27.780Z,14.43
2018-12-05T09:46:55.215Z,14.20
2018-12-05T09:49:22.656Z,12.43
2018-12-05T09:51:50.188Z,13.10
2018-12-05T09:54:17.634Z,12.83
2018-12-05T09:56:45.071Z,13.87
2018-12-05T09:59:12.515Z,15.00
2018-12-05T10:01:40.034Z,13.93
2018-12-05T10:04:07.479Z,14.03
2018-12-05T10:06:34.926Z,13.07
2018-12-05T10:09:02.414Z,13.17
2018-12-05T10:11:29.951Z,13.67
2018-12-05T10:13:57.387Z,13.40
2018-12-05T10:16:24.830Z,13.30
2018-12-05T10:18:52.323Z,12.07
2018-12-05T10:21:19.767Z,15.40
2018-12-05T10:23:47.207Z,15.13
2018-12-05T10:26:14.642Z,13.50
2018-12-05T10:28:42.088Z,12.93
2018-12-05T10:31:09.515Z,13.47
2018-12-05T10:33:36.964Z,12.73
2018-12-05T10:36:04.446Z,14.37
2018-12-05T10:38:31.931Z,14.43
2018-12-05T10:40:59.367Z,12.10
2018-12-05T10:43:26.803Z,12.33
2018-12-05T10:45:54.243Z,12.73
2018-12-05T10:48:21.678Z,11.70
2018-12-05T10:50:49.117Z,13.13
2018-12-05T10:53:16.715Z,12.50
2018-12-05T10:55:44.213Z,12.73
2018-12-05T10:58:11.655Z,12.87
2018-12-05T11:00:44.802Z,13.03
2018-12-05T11:03:16.746Z,12.60
2018-12-05T11:05:49.990Z,12.63
2018-12-05T11:08:19.568Z,13.00
2018-12-05T11:10:52.591Z,15.23
2018-12-05T11:13:25.703Z,15.70
2018-12-05T11:15:58.851Z,12.90
2018-12-05T11:18:32.901Z,14.10
2018-12-05T11:21:06.179Z,13.17
2018-12-05T11:23:39.343Z,14.47
2018-12-05T11:26:09.359Z,13.80
2018-12-05T11:28:36.799Z,14.53
2018-12-05T11:31:04.235Z,14.30
2018-12-05T11:33:31.676Z,15.33
2018-12-05T11:35:59.159Z,14.67
2018-12-05T11:38:26.655Z,15.30
2018-12-05T11:40:54.082Z,13.70
2018-12-05T11:43:21.530Z,14.63
2018-12-05T11:45:48.967Z,14.10
2018-12-05T11:48:16.406Z,13.37
2018-12-05T11:50:43.936Z,12.10
2018-12-05T11:53:11.380Z,13.40
2018-12-05T11:55:38.877Z,13.13
2018-12-05T11:58:06.320Z,14.40
2018-12-05T12:00:33.870Z,13.77
2018-12-05T12:03:01.304Z,13.03
2018-12-05T12:05:28.744Z,16.23
2018-12-05T12:07:56.183Z,13.97
2018-12-05T12:10:25.591Z,12.93
2018-12-05T12:12:58.779Z,13.13
2018-12-05T12:15:26.223Z,14.03
2018-12-05T12:17:53.732Z,13.23
2018-12-05T12:20:21.179Z,13.63
2018-12-05T12:22:48.625Z,13.17
2018-12-05T12:25:16.055Z,13.50
2018-12-05T12:27:43.599Z,12.97
2018-12-05T12:30:15.867Z,13.47
2018-12-05T12:32:40.488Z,12.00
2018-12-05T12:35:07.979Z,13.07
2018-12-05T12:37:35.410Z,12.50
2018-12-05T12:40:03.063Z,12.67
2018-12-05T12:42:30.500Z,12.90
2018-12-05T12:44:58.319Z,13.77
2018-12-05T12:47:25.753Z,13.60
2018-12-05T12:49:53.184Z,13.60
2018-12-05T12:52:20.631Z,12.37
2018-12-05T12:54:48.071Z,13.87
2018-12-05T12:57:15.515Z,13.43
2018-12-05T12:59:43.053Z,13.30
2018-12-05T13:02:10.491Z,14.20
2018-12-05T13:04:37.937Z,12.47
2018-12-05T13:07:05.370Z,13.23
2018-12-05T13:09:32.827Z,13.40
2018-12-05T13:12:00.269Z,13.20
2018-12-05T13:14:27.707Z,16.73
2018-12-05T13:16:55.138Z,13.63
2018-12-05T13:19:22.580Z,13.27
2018-12-05T13:21:50.099Z,11.80
2018-12-05T13:24:17.543Z,12.70
2018-12-05T13:26:44.996Z,13.00
2018-12-05T13:29:12.430Z,12.37
2018-12-05T13:31:39.875Z,12.00
2018-12-05T13:34:07.315Z,11.97
2018-12-05T13:36:34.752Z,11.57
2018-12-05T13:39:02.187Z,11.97
2018-12-05T13:41:29.722Z,12.33
2018-12-05T13:43:57.163Z,12.23
2018-12-05T13:46:29.960Z,13.03
2018-12-05T13:48:54.093Z,12.07
2018-12-05T13:51:21.590Z,12.60
2018-12-05T13:53:49.032Z,14.47
2018-12-05T13:56:16.463Z,13.37
2018-12-05T13:58:43.899Z,12.93
2018-12-05T14:01:11.330Z,13.27
2018-12-05T14:03:38.778Z,13.97
2018-12-05T14:06:06.219Z,12.63
2018-12-05T14:08:33.651Z,14.93
2018-12-05T14:11:01.106Z,13.73
2018-12-05T14:13:28.544Z,14.57
2018-12-05T14:15:55.988Z,13.60
2018-12-05T14:18:23.431Z,12.90
2018-12-05T14:20:50.875Z,14.33
2018-12-05T14:23:18.319Z,12.67
2018-12-05T14:25:45.751Z,12.57
2018-12-05T14:28:13.198Z,13.17
2018-12-05T14:30:40.685Z,15.90
2018-12-05T14:33:08.127Z,14.53
2018-12-05T14:35:35.562Z,13.87
2018-12-05T14:38:02.998Z,13.63
2018-12-05T14:40:30.447Z,14.13
2018-12-05T14:42:58.032Z,13.13
2018-12-05T14:45:25.471Z,13.90
2018-12-05T14:47:52.909Z,13.40
2018-12-05T14:50:20.346Z,14.87
2018-12-05T14:52:47.783Z,17.90
2018-12-05T14:55:15.223Z,14.67
2018-12-05T14:57:42.659Z,14.83
2018-12-05T15:00:12.366Z,14.40
2018-12-05T15:02:39.975Z,15.07
2018-12-05T15:05:07.459Z,15.03
2018-12-05T15:07:34.908Z,15.33
2018-12-05T15:10:02.410Z,14.83
2018-12-05T15:12:29.859Z,15.40
2018-12-05T15:14:57.296Z,17.53
2018-12-05T15:17:24.735Z,15.40
2018-12-05T15:19:52.170Z,14.43
2018-12-05T15:22:19.613Z,16.63
2018-12-05T15:24:47.056Z,16.57
2018-12-05T15:27:14.486Z,16.73
2018-12-05T15:29:41.931Z,14.77
2018-12-05T15:32:09.362Z,16.50
2018-12-05T15:34:36.802Z,16.40
2018-12-05T15:37:04.242Z,16.10
2018-12-05T15:39:31.799Z,18.43
2018-12-05T15:41:59.230Z,18.10
2018-12-05T15:44:26.670Z,20.17
2018-12-05T15:46:54.120Z,16.33
2018-12-05T15:49:21.562Z,17.47
2018-12-05T15:51:48.999Z,18.50
2018-12-05T15:54:16.446Z,18.70
2018-12-05T15:56:43.947Z,16.37
2018-12-05T15:59:11.387Z,17.30
2018-12-05T16:01:38.826Z,18.17
2018-12-05T16:04:06.263Z,17.43
2018-12-05T16:06:33.715Z,17.30
2018-12-05T16:09:01.155Z,17.17
2018-12-05T16:11:28.591Z,17.27
2018-12-05T16:13:56.044Z,17.43
2018-12-05T16:16:23.581Z,17.23
2018-12-05T16:18:51.020Z,17.40
2018-12-05T16:21:18.455Z,20.47
2018-12-05T16:23:45.902Z,16.70
2018-12-05T16:26:13.348Z,17.30
2018-12-05T16:28:40.786Z,16.87
2018-12-05T16:31:08.239Z,19.50
2018-12-05T16:33:35.671Z,18.47
2018-12-05T16:36:03.166Z,18.40
2018-12-05T16:38:30.604Z,16.87
2018-12-05T16:40:58.053Z,19.73
2018-12-05T16:43:25.486Z,20.50
2018-12-05T16:45:52.936Z,18.20
2018-12-05T16:48:20.384Z,19.27
2018-12-05T16:50:47.819Z,18.23
2018-12-05T16:53:15.248Z,19.47
2018-12-05T16:55:42.699Z,22.03
2018-12-05T16:58:10.142Z,22.47
2018-12-05T17:00:37.578Z,20.20
2018-12-05T17:03:05.012Z,19.47
2018-12-05T17:05:32.520Z,19.87
2018-12-05T17:07:59.953Z,20.57
2018-12-05T17:10:27.390Z,19.10
2018-12-05T17:12:54.827Z,20.97
2018-12-05T17:15:22.374Z,20.77
2018-12-05T17:17:49.819Z,19.90
2018-12-05T17:20:17.264Z,22.23
2018-12-05T17:22:44.719Z,21.70
2018-12-05T17:25:12.160Z,22.40
2018-12-05T17:27:39.586Z,19.73
2018-12-05T17:30:07.226Z,21.47
2018-12-05T17:32:34.735Z,21.33
2018-12-05T17:35:02.172Z,22.57
2018-12-05T17:37:29.617Z,22.00
2018-12-05T17:39:57.050Z,22.07
2018-12-05T17:42:24.501Z,19.33
2018-12-05T17:44:52.023Z,22.83
2018-12-05T17:47:19.467Z,18.93
2018-12-05T17:49:46.991Z,20.93
2018-12-05T17:52:14.491Z,19.73
2018-12-05T17:54:41.927Z,20.10
2018-12-05T17:57:09.387Z,21.10
2018-12-05T17:59:36.823Z,22.70
2018-12-05T18:02:04.262Z,21.63
2018-12-05T18:04:31.707Z,22.43
2018-12-05T18:06:59.151Z,22.37
2018-12-05T18:09:26.599Z,22.17
2018-12-05T18:11:54.050Z,22.10
2018-12-05T18:14:21.580Z,23.63
2018-12-05T18:16:49.015Z,21.57
2018-12-05T18:19:16.464Z,22.03
2018-12-05T18:21:43.946Z,21.80
2018-12-05T18:24:11.395Z,22.90
2018-12-05T18:26:38.835Z,21.97
2018-12-05T18:29:06.278Z,21.37
2018-12-05T18:31:33.714Z,20.97
2018-12-05T18:34:01.167Z,21.70
2018-12-05T18:36:28.607Z,21.73
2018-12-05T18:38:56.139Z,23.33
2018-12-05T18:41:23.574Z,23.00
2018-12-05T18:43:51.115Z,24.70
2018-12-05T18:46:18.554Z,23.73
2018-12-05T18:48:46.072Z,21.57
2018-12-05T18:51:13.502Z,24.17
2018-12-05T18:53:40.943Z,24.40
2018-12-05T18:56:08.391Z,23.13
2018-12-05T18:58:35.835Z,23.33
2018-12-05T19:01:03.339Z,26.80
2018-12-05T19:03:30.779Z,24.80
2018-12-05T19:05:58.219Z,21.97
2018-12-05T19:08:25.661Z,22.97
2018-12-05T19:10:53.105Z,24.30
2018-12-05T19:13:21.515Z,24.03
2018-12-05T19:15:49.175Z,25.27
2018-12-05T19:18:16.663Z,26.40
2018-12-05T19:20:44.411Z,25.87
2018-12-05T19:23:12.138Z,27.90
2018-12-05T19:25:39.810Z,26.57
2018-12-05T19:28:07.567Z,26.10
2018-12-05T19:30:35.303Z,25.90
2018-12-05T19:33:03.065Z,25.17
2018-12-05T19:35:30.803Z,26.17
2018-12-05T19:37:58.923Z,22.73
2018-12-05T19:40:26.415Z,26.13
2018-12-05T19:42:53.944Z,23.57
2018-12-05T19:45:21.465Z,23.70
2018-12-05T19:47:48.898Z,25.60
2018-12-05T19:50:16.403Z,26.00
2018-12-05T19:52:43.842Z,23.47
2018-12-05T19:55:11.335Z,25.93
2018-12-05T19:57:38.770Z,25.37
2018-12-05T20:00:09.027Z,28.23
2018-12-05T20:02:36.504Z,32.00
2018-12-05T20:05:04.662Z,29.70
2018-12-05T20:07:32.098Z,28.90
2018-12-05T20:09:59.607Z,27.70
2018-12-05T20:12:27.046Z,29.50
2018-12-05T20:14:54.479Z,29.70
2018-12-05T20:17:21.915Z,29.00
2018-12-05T20:19:49.351Z,31.00
2018-12-05T20:22:16.839Z,26.73
2018-12-05T20:24:44.277Z,27.37
2018-12-05T20:27:11.722Z,25.70
2018-12-05T20:29:39.155Z,26.73
2018-12-05T20:32:06.595Z,27.67
2018-12-05T20:34:34.040Z,29.27
2018-12-05T20:37:01.487Z,24.17
2018-12-05T20:39:28.921Z,25.37
2018-12-05T20:42:01.131Z,25.77
2018-12-05T20:44:28.627Z,25.97
2018-12-05T20:46:56.076Z,25.97
2018-12-05T20:49:23.503Z,31.47
2018-12-05T20:51:51.032Z,28.40
2018-12-05T20:54:18.466Z,30.90
2018-12-05T20:56:45.979Z,25.50
2018-12-05T20:59:13.412Z,29.07
2018-12-05T21:01:40.968Z,27.23
2018-12-05T21:04:08.411Z,26.17
2018-12-05T21:06:35.863Z,25.17
2018-12-05T21:09:06.607Z,28.93
2018-12-05T21:11:34.103Z,26.03
2018-12-05T21:14:01.613Z,30.37
2018-12-05T21:16:29.054Z,25.30
2018-12-05T21:18:56.499Z,27.40
2018-12-05T21:21:23.935Z,31.80
2018-12-05T21:23:51.371Z,28.97
2018-12-05T21:26:18.864Z,24.93
2018-12-05T21:28:46.307Z,26.60
2018-12-05T21:31:13.897Z,33.37
2018-12-05T21:33:41.342Z,28.57
2018-12-05T21:36:08.783Z,26.83
2018-12-05T21:38:36.222Z,24.10
2018-12-05T21:41:03.714Z,23.00
2018-12-05T21:43:31.153Z,26.70
2018-12-05T21:45:58.594Z,24.93
2018-12-05T21:48:26.046Z,24.27
2018-12-05T21:50:53.486Z,23.67
2018-12-05T21:53:20.922Z,24.77
2018-12-05T21:55:48.359Z,23.57
2018-12-05T21:58:15.800Z,22.27
2018-12-05T22:00:43.251Z,25.20
2018-12-05T22:03:10.691Z,22.57
2018-12-05T22:05:38.132Z,22.77
2018-12-05T22:08:05.566Z,21.70
2018-12-05T22:10:33.012Z,20.37
2018-12-05T22:13:00.452Z,20.50
2018-12-05T22:15:27.899Z,19.17
2018-12-05T22:17:55.336Z,20.03
2018-12-05T22:20:22.785Z,19.63
2018-12-05T22:22:50.277Z,19.07
2018-12-05T22:25:17.763Z,21.13
2018-12-05T22:27:45.202Z,19.73
2018-12-05T22:30:12.642Z,18.77
2018-12-05T22:32:40.091Z,19.43
2018-12-05T22:35:08.467Z,18.50
2018-12-05T22:37:35.919Z,20.50
2018-12-05T22:40:05.175Z,20.37
2018-12-05T22:42:32.624Z,17.80
2018-12-05T22:45:00.695Z,19.47
2018-12-05T22:47:28.139Z,20.43
2018-12-05T22:49:55.575Z,20.43
2018-12-05T22:52:23.078Z,19.93
2018-12-05T22:54:50.509Z,19.50
2018-12-05T22:57:17.956Z,18.37
2018-12-05T22:59:45.388Z,25.93
2018-12-05T23:02:12.883Z,24.90
2018-12-05T23:04:40.319Z,22.40
2018-12-05T23:07:07.766Z,21.80
2018-12-05T23:09:35.213Z,23.53
2018-12-05T23:12:02.711Z,26.57
2018-12-05T23:14:30.151Z,21.87
2018-12-05T23:16:57.596Z,20.93
2018-12-05T23:19:25.086Z,20.47
2018-12-05T23:21:52.525Z,21.90
2018-12-05T23:24:19.968Z,20.67
2018-12-05T23:26:47.405Z,18.87
2018-12-05T23:29:14.855Z,20.67
2018-12-05T23:31:42.287Z,17.90
2018-12-05T23:34:09.774Z,19.23
2018-12-05T23:36:37.223Z,17.10
2018-12-05T23:39:05.973Z,18.57
2018-12-05T23:41:33.464Z,16.73
2018-12-05T23:44:00.900Z,17.57
2018-12-05T23:46:28.326Z,16.63
2018-12-05T23:48:55.762Z,17.20
2018-12-05T23:51:23.319Z,16.87
2018-12-05T23:53:50.763Z,18.33
2018-12-05T23:56:18.189Z,18.57
2018-12-05T23:58:45.636Z,18.10
